sensor_id;sensor_type;location;lat;lon;timestamp;pressure;altitude;pressure_sealevel;temperature;humidity
40245;BME280;25963;42.694;23.600;2023-02-04T00:01:38;95052.69;;;1.03;100.00
40245;BME280;25963;42.694;23.600;2023-02-04T00:04:04;95041.94;;;0.98;100.00
40245;BME280;25963;42.694;23.600;2023-02-04T00:06:29;95032.53;;;0.97;100.00
40245;BME280;25963;42.694;23.600;2023-02-04T00:08:55;95044.88;;;0.95;100.00
40245;BME280;25963;42.694;23.600;2023-02-04T00:11:20;95034.47;;;0.95;100.00
40245;BME280;25963;42.694;23.600;2023-02-04T00:13:47;95023.09;;;0.96;100.00
40245;BME280;25963;42.694;23.600;2023-02-04T00:16:12;95023.75;;;0.98;100.00
40245;BME280;25963;42.694;23.600;2023-02-04T00:18:37;95022.16;;;0.97;100.00
40245;BME280;25963;42.694;23.600;2023-02-04T00:21:03;95012.72;;;0.87;100.00
40245;BME280;25963;42.694;23.600;2023-02-04T00:23:29;95014.50;;;0.95;100.00
40245;BME280;25963;42.694;23.600;2023-02-04T00:25:54;95005.44;;;0.99;100.00
40245;BME280;25963;42.694;23.600;2023-02-04T00:28:20;95000.25;;;0.99;100.00
40245;BME280;25963;42.694;23.600;2023-02-04T00:30:47;95006.38;;;0.98;100.00
40245;BME280;25963;42.694;23.600;2023-02-04T00:33:13;95008.69;;;0.93;100.00
40245;BME280;25963;42.694;23.600;2023-02-04T00:35:38;95002.03;;;0.90;100.00
40245;BME280;25963;42.694;23.600;2023-02-04T00:38:07;95007.22;;;0.90;100.00
40245;BME280;25963;42.694;23.600;2023-02-04T00:40:32;95006.41;;;0.90;100.00
40245;BME280;25963;42.694;23.600;2023-02-04T00:42:58;95005.88;;;0.86;100.00
40245;BME280;25963;42.694;23.600;2023-02-04T00:45:23;94992.59;;;0.89;100.00
40245;BME280;25963;42.694;23.600;2023-02-04T00:47:49;94996.00;;;0.90;100.00
40245;BME280;25963;42.694;23.600;2023-02-04T00:50:15;94991.94;;;0.87;100.00
40245;BME280;25963;42.694;23.600;2023-02-04T00:52:41;94986.91;;;0.94;100.00
40245;BME280;25963;42.694;23.600;2023-02-04T00:55:07;94985.94;;;0.87;100.00
40245;BME280;25963;42.694;23.600;2023-02-04T00:57:33;94975.22;;;0.82;100.00
40245;BME280;25963;42.694;23.600;2023-02-04T00:59:58;94985.44;;;0.83;100.00
40245;BME280;25963;42.694;23.600;2023-02-04T01:02:24;94976.69;;;0.76;100.00
40245;BME280;25963;42.694;23.600;2023-02-04T01:04:50;94971.81;;;0.81;100.00
40245;BME280;25963;42.694;23.600;2023-02-04T01:07:15;94965.31;;;0.77;100.00
40245;BME280;25963;42.694;23.600;2023-02-04T01:09:41;94968.25;;;0.82;100.00
40245;BME280;25963;42.694;23.600;2023-02-04T01:12:06;94958.50;;;0.76;100.00
40245;BME280;25963;42.694;23.600;2023-02-04T01:14:32;94950.06;;;0.74;100.00
40245;BME280;25963;42.694;23.600;2023-02-04T01:16:57;94945.84;;;0.81;100.00
40245;BME280;25963;42.694;23.600;2023-02-04T01:19:22;94947.63;;;0.89;100.00
40245;BME280;25963;42.694;23.600;2023-02-04T01:21:48;94938.03;;;0.89;100.00
40245;BME280;25963;42.694;23.600;2023-02-04T01:24:13;94924.09;;;0.90;100.00
40245;BME280;25963;42.694;23.600;2023-02-04T01:26:39;94936.28;;;0.82;100.00
40245;BME280;25963;42.694;23.600;2023-02-04T01:29:04;94924.44;;;0.63;100.00
40245;BME280;25963;42.694;23.600;2023-02-04T01:31:30;94934.16;;;0.77;100.00
40245;BME280;25963;42.694;23.600;2023-02-04T01:33:58;94924.28;;;0.73;100.00
40245;BME280;25963;42.694;23.600;2023-02-04T01:36:23;94918.25;;;0.64;100.00
40245;BME280;25963;42.694;23.600;2023-02-04T01:38:49;94914.69;;;0.49;100.00
40245;BME280;25963;42.694;23.600;2023-02-04T01:41:15;94920.84;;;0.39;100.00
40245;BME280;25963;42.694;23.600;2023-02-04T01:43:41;94924.59;;;0.45;100.00
40245;BME280;25963;42.694;23.600;2023-02-04T01:46:07;94915.00;;;0.45;100.00
40245;BME280;25963;42.694;23.600;2023-02-04T01:48:32;94925.88;;;0.49;100.00
40245;BME280;25963;42.694;23.600;2023-02-04T01:51:05;94915.34;;;0.59;100.00
40245;BME280;25963;42.694;23.600;2023-02-04T01:53:31;94916.94;;;0.60;100.00
40245;BME280;25963;42.694;23.600;2023-02-04T01:55:58;94909.34;;;0.58;100.00
40245;BME280;25963;42.694;23.600;2023-02-04T01:58:23;94898.47;;;0.63;100.00
40245;BME280;25963;42.694;23.600;2023-02-04T02:00:49;94901.72;;;0.73;100.00
40245;BME280;25963;42.694;23.600;2023-02-04T02:03:15;94898.94;;;0.75;100.00
40245;BME280;25963;42.694;23.600;2023-02-04T02:05:44;94890.66;;;0.79;100.00
40245;BME280;25963;42.694;23.600;2023-02-04T02:08:12;94890.03;;;0.69;100.00
40245;BME280;25963;42.694;23.600;2023-02-04T02:10:41;94881.75;;;0.74;100.00
40245;BME280;25963;42.694;23.600;2023-02-04T02:13:10;94878.34;;;0.81;100.00
40245;BME280;25963;42.694;23.600;2023-02-04T02:15:36;94870.22;;;0.84;100.00
40245;BME280;25963;42.694;23.600;2023-02-04T02:18:02;94876.69;;;0.80;100.00
40245;BME280;25963;42.694;23.600;2023-02-04T02:20:27;94870.38;;;0.91;100.00
40245;BME280;25963;42.694;23.600;2023-02-04T02:23:18;94871.19;;;0.91;100.00
40245;BME280;25963;42.694;23.600;2023-02-04T02:25:47;94858.19;;;0.91;100.00
40245;BME280;25963;42.694;23.600;2023-02-04T02:28:16;94856.59;;;0.90;100.00
40245;BME280;25963;42.694;23.600;2023-02-04T02:30:42;94849.41;;;0.93;100.00
40245;BME280;25963;42.694;23.600;2023-02-04T02:33:11;94846.19;;;0.90;100.00
40245;BME280;25963;42.694;23.600;2023-02-04T02:35:39;94839.69;;;0.86;100.00
40245;BME280;25963;42.694;23.600;2023-02-04T02:38:08;94840.66;;;0.94;100.00
40245;BME280;25963;42.694;23.600;2023-02-04T02:40:34;94833.22;;;0.82;100.00
40245;BME280;25963;42.694;23.600;2023-02-04T02:42:59;94824.63;;;0.82;100.00
40245;BME280;25963;42.694;23.600;2023-02-04T02:45:27;94809.53;;;0.77;100.00
40245;BME280;25963;42.694;23.600;2023-02-04T02:47:53;94796.88;;;0.74;100.00
40245;BME280;25963;42.694;23.600;2023-02-04T02:50:24;94805.59;;;0.89;100.00
40245;BME280;25963;42.694;23.600;2023-02-04T02:52:50;94804.84;;;0.81;100.00
40245;BME280;25963;42.694;23.600;2023-02-04T02:55:18;94802.19;;;0.89;100.00
40245;BME280;25963;42.694;23.600;2023-02-04T02:57:45;94803.00;;;0.89;100.00
40245;BME280;25963;42.694;23.600;2023-02-04T03:00:17;94813.22;;;0.91;100.00
40245;BME280;25963;42.694;23.600;2023-02-04T03:02:44;94805.13;;;0.86;100.00
40245;BME280;25963;42.694;23.600;2023-02-04T03:05:11;94809.50;;;0.94;100.00
40245;BME280;25963;42.694;23.600;2023-02-04T03:07:37;94797.81;;;0.89;100.00
40245;BME280;25963;42.694;23.600;2023-02-04T03:10:03;94802.03;;;0.90;100.00
40245;BME280;25963;42.694;23.600;2023-02-04T03:12:29;94796.22;;;0.80;100.00
40245;BME280;25963;42.694;23.600;2023-02-04T03:14:54;94793.13;;;0.77;100.00
40245;BME280;25963;42.694;23.600;2023-02-04T03:17:20;94792.13;;;0.86;100.00
40245;BME280;25963;42.694;23.600;2023-02-04T03:19:47;94789.72;;;0.84;100.00
40245;BME280;25963;42.694;23.600;2023-02-04T03:22:13;94792.31;;;0.84;100.00
40245;BME280;25963;42.694;23.600;2023-02-04T03:24:38;94789.53;;;0.86;100.00
40245;BME280;25963;42.694;23.600;2023-02-04T03:27:04;94769.56;;;0.86;100.00
40245;BME280;25963;42.694;23.600;2023-02-04T03:29:29;94772.16;;;0.95;100.00
40245;BME280;25963;42.694;23.600;2023-02-04T03:31:55;94766.34;;;0.84;100.00
40245;BME280;25963;42.694;23.600;2023-02-04T03:34:21;94765.38;;;0.77;100.00
40245;BME280;25963;42.694;23.600;2023-02-04T03:36:48;94766.38;;;0.76;100.00
40245;BME280;25963;42.694;23.600;2023-02-04T03:39:13;94765.09;;;0.72;100.00
40245;BME280;25963;42.694;23.600;2023-02-04T03:41:38;94755.06;;;0.61;100.00
40245;BME280;25963;42.694;23.600;2023-02-04T03:44:04;94764.13;;;0.57;100.00
40245;BME280;25963;42.694;23.600;2023-02-04T03:46:29;94762.38;;;0.57;100.00
40245;BME280;25963;42.694;23.600;2023-02-04T03:48:55;94763.63;;;0.70;100.00
40245;BME280;25963;42.694;23.600;2023-02-04T03:51:20;94769.31;;;0.73;100.00
40245;BME280;25963;42.694;23.600;2023-02-04T03:53:46;94774.22;;;0.52;100.00
40245;BME280;25963;42.694;23.600;2023-02-04T03:56:11;94759.13;;;0.55;100.00
40245;BME280;25963;42.694;23.600;2023-02-04T03:58:36;94744.34;;;0.64;100.00
40245;BME280;25963;42.694;23.600;2023-02-04T04:01:02;94744.31;;;0.72;100.00
40245;BME280;25963;42.694;23.600;2023-02-04T04:03:27;94720.63;;;0.67;100.00
40245;BME280;25963;42.694;23.600;2023-02-04T04:05:53;94723.22;;;0.75;100.00
40245;BME280;25963;42.694;23.600;2023-02-04T04:08:18;94731.28;;;0.80;100.00
40245;BME280;25963;42.694;23.600;2023-02-04T04:10:43;94724.66;;;0.78;100.00
40245;BME280;25963;42.694;23.600;2023-02-04T04:13:09;94718.31;;;0.80;100.00
40245;BME280;25963;42.694;23.600;2023-02-04T04:15:34;94724.28;;;0.89;100.00
40245;BME280;25963;42.694;23.600;2023-02-04T04:17:59;94732.25;;;0.87;100.00
40245;BME280;25963;42.694;23.600;2023-02-04T04:20:26;94718.63;;;0.85;100.00
40245;BME280;25963;42.694;23.600;2023-02-04T04:22:52;94722.84;;;0.86;100.00
40245;BME280;25963;42.694;23.600;2023-02-04T04:25:17;94724.75;;;0.93;100.00
40245;BME280;25963;42.694;23.600;2023-02-04T04:27:43;94717.38;;;0.73;100.00
40245;BME280;25963;42.694;23.600;2023-02-04T04:30:09;94724.34;;;0.81;100.00
40245;BME280;25963;42.694;23.600;2023-02-04T04:32:35;94732.44;;;0.78;100.00
40245;BME280;25963;42.694;23.600;2023-02-04T04:35:00;94731.78;;;0.84;100.00
40245;BME280;25963;42.694;23.600;2023-02-04T04:37:26;94732.25;;;0.87;100.00
40245;BME280;25963;42.694;23.600;2023-02-04T04:39:52;94732.38;;;0.94;100.00
40245;BME280;25963;42.694;23.600;2023-02-04T04:42:17;94724.94;;;0.91;100.00
40245;BME280;25963;42.694;23.600;2023-02-04T04:44:43;94722.84;;;0.86;100.00
40245;BME280;25963;42.694;23.600;2023-02-04T04:47:08;94739.06;;;0.88;100.00
40245;BME280;25963;42.694;23.600;2023-02-04T04:49:34;94729.00;;;0.85;100.00
40245;BME280;25963;42.694;23.600;2023-02-04T04:51:59;94735.31;;;0.91;100.00
40245;BME280;25963;42.694;23.600;2023-02-04T04:54:24;94728.84;;;0.87;100.00
40245;BME280;25963;42.694;23.600;2023-02-04T04:56:50;94728.53;;;0.90;100.00
40245;BME280;25963;42.694;23.600;2023-02-04T04:59:15;94728.34;;;0.91;100.00
40245;BME280;25963;42.694;23.600;2023-02-04T05:01:41;94734.53;;;0.90;100.00
40245;BME280;25963;42.694;23.600;2023-02-04T05:04:06;94731.47;;;0.87;100.00
40245;BME280;25963;42.694;23.600;2023-02-04T05:06:32;94737.28;;;0.89;100.00
40245;BME280;25963;42.694;23.600;2023-02-04T05:08:57;94735.66;;;0.88;100.00
40245;BME280;25963;42.694;23.600;2023-02-04T05:11:22;94741.97;;;0.94;100.00
40245;BME280;25963;42.694;23.600;2023-02-04T05:13:48;94741.69;;;0.80;100.00
40245;BME280;25963;42.694;23.600;2023-02-04T05:16:13;94741.84;;;0.87;100.00
40245;BME280;25963;42.694;23.600;2023-02-04T05:18:40;94755.66;;;0.79;100.00
40245;BME280;25963;42.694;23.600;2023-02-04T05:21:06;94753.72;;;0.81;100.00
40245;BME280;25963;42.694;23.600;2023-02-04T05:23:31;94750.47;;;0.79;100.00
40245;BME280;25963;42.694;23.600;2023-02-04T05:25:57;94750.13;;;0.82;100.00
40245;BME280;25963;42.694;23.600;2023-02-04T05:28:23;94737.47;;;0.87;100.00
40245;BME280;25963;42.694;23.600;2023-02-04T05:30:49;94766.50;;;0.83;100.00
40245;BME280;25963;42.694;23.600;2023-02-04T05:33:14;94742.50;;;0.81;100.00
40245;BME280;25963;42.694;23.600;2023-02-04T05:35:40;94776.09;;;0.82;100.00
40245;BME280;25963;42.694;23.600;2023-02-04T05:38:05;94772.50;;;0.83;100.00
40245;BME280;25963;42.694;23.600;2023-02-04T05:40:31;94770.44;;;0.79;100.00
40245;BME280;25963;42.694;23.600;2023-02-04T05:42:56;94778.75;;;0.66;100.00
40245;BME280;25963;42.694;23.600;2023-02-04T05:45:21;94783.88;;;0.74;100.00
40245;BME280;25963;42.694;23.600;2023-02-04T05:47:47;94774.50;;;0.73;100.00
40245;BME280;25963;42.694;23.600;2023-02-04T05:50:13;94773.84;;;0.71;100.00
40245;BME280;25963;42.694;23.600;2023-02-04T05:52:38;94771.91;;;0.73;100.00
40245;BME280;25963;42.694;23.600;2023-02-04T05:55:04;94780.81;;;0.79;100.00
40245;BME280;25963;42.694;23.600;2023-02-04T05:57:30;94779.81;;;0.80;100.00
40245;BME280;25963;42.694;23.600;2023-02-04T05:59:56;94783.56;;;0.77;100.00
40245;BME280;25963;42.694;23.600;2023-02-04T06:02:21;94767.69;;;0.64;100.00
40245;BME280;25963;42.694;23.600;2023-02-04T06:04:46;94767.50;;;0.74;100.00
40245;BME280;25963;42.694;23.600;2023-02-04T06:07:12;94767.66;;;0.80;100.00
40245;BME280;25963;42.694;23.600;2023-02-04T06:09:37;94776.56;;;0.86;100.00
40245;BME280;25963;42.694;23.600;2023-02-04T06:12:03;94774.31;;;0.75;100.00
40245;BME280;25963;42.694;23.600;2023-02-04T06:14:28;94777.03;;;0.89;100.00
40245;BME280;25963;42.694;23.600;2023-02-04T06:16:54;94755.59;;;0.96;100.00
40245;BME280;25963;42.694;23.600;2023-02-04T06:19:19;94762.28;;;0.90;100.00
40245;BME280;25963;42.694;23.600;2023-02-04T06:21:44;94757.91;;;0.90;100.00
40245;BME280;25963;42.694;23.600;2023-02-04T06:24:10;94774.72;;;1.03;100.00
40245;BME280;25963;42.694;23.600;2023-02-04T06:26:35;94775.66;;;1.10;100.00
40245;BME280;25963;42.694;23.600;2023-02-04T06:29:01;94768.50;;;1.20;100.00
40245;BME280;25963;42.694;23.600;2023-02-04T06:31:26;94758.38;;;1.25;100.00
40245;BME280;25963;42.694;23.600;2023-02-04T06:33:52;94763.91;;;1.30;100.00
40245;BME280;25963;42.694;23.600;2023-02-04T06:36:17;94758.03;;;1.28;100.00
40245;BME280;25963;42.694;23.600;2023-02-04T06:38:42;94761.63;;;1.27;100.00
40245;BME280;25963;42.694;23.600;2023-02-04T06:41:08;94761.88;;;1.41;100.00
40245;BME280;25963;42.694;23.600;2023-02-04T06:43:34;94765.13;;;1.43;100.00
40245;BME280;25963;42.694;23.600;2023-02-04T06:45:59;94771.19;;;1.35;100.00
40245;BME280;25963;42.694;23.600;2023-02-04T06:48:24;94762.19;;;1.46;100.00
40245;BME280;25963;42.694;23.600;2023-02-04T06:50:50;94758.00;;;1.36;100.00
40245;BME280;25963;42.694;23.600;2023-02-04T06:53:16;94762.28;;;1.29;100.00
40245;BME280;25963;42.694;23.600;2023-02-04T06:55:41;94744.25;;;1.28;100.00
40245;BME280;25963;42.694;23.600;2023-02-04T06:58:07;94758.47;;;1.40;100.00
40245;BME280;25963;42.694;23.600;2023-02-04T07:00:32;94753.78;;;1.67;100.00
40245;BME280;25963;42.694;23.600;2023-02-04T07:02:57;94761.38;;;1.99;100.00
40245;BME280;25963;42.694;23.600;2023-02-04T07:05:24;94754.69;;;2.20;100.00
40245;BME280;25963;42.694;23.600;2023-02-04T07:07:49;94771.00;;;2.37;100.00
40245;BME280;25963;42.694;23.600;2023-02-04T07:10:17;94772.09;;;2.57;100.00
40245;BME280;25963;42.694;23.600;2023-02-04T07:12:44;94761.44;;;2.67;100.00
40245;BME280;25963;42.694;23.600;2023-02-04T07:15:10;94757.56;;;2.78;100.00
40245;BME280;25963;42.694;23.600;2023-02-04T07:17:35;94750.84;;;2.83;100.00
40245;BME280;25963;42.694;23.600;2023-02-04T07:20:01;94745.19;;;2.80;100.00
40245;BME280;25963;42.694;23.600;2023-02-04T07:22:26;94743.81;;;2.54;100.00
40245;BME280;25963;42.694;23.600;2023-02-04T07:24:52;94737.66;;;2.70;100.00
40245;BME280;25963;42.694;23.600;2023-02-04T07:27:17;94736.94;;;2.91;100.00
40245;BME280;25963;42.694;23.600;2023-02-04T07:29:42;94735.56;;;3.10;100.00
40245;BME280;25963;42.694;23.600;2023-02-04T07:32:08;94744.03;;;2.97;100.00
40245;BME280;25963;42.694;23.600;2023-02-04T07:34:33;94748.16;;;2.91;100.00
40245;BME280;25963;42.694;23.600;2023-02-04T07:36:59;94740.16;;;2.93;100.00
40245;BME280;25963;42.694;23.600;2023-02-04T07:39:24;94733.22;;;3.15;100.00
40245;BME280;25963;42.694;23.600;2023-02-04T07:41:49;94731.09;;;3.40;100.00
40245;BME280;25963;42.694;23.600;2023-02-04T07:44:15;94731.19;;;3.47;100.00
40245;BME280;25963;42.694;23.600;2023-02-04T07:46:40;94732.56;;;3.64;100.00
40245;BME280;25963;42.694;23.600;2023-02-04T07:49:06;94728.69;;;3.75;100.00
40245;BME280;25963;42.694;23.600;2023-02-04T07:51:31;94721.22;;;3.93;100.00
40245;BME280;25963;42.694;23.600;2023-02-04T07:53:57;94723.84;;;3.93;100.00
40245;BME280;25963;42.694;23.600;2023-02-04T07:56:22;94729.31;;;3.98;100.00
40245;BME280;25963;42.694;23.600;2023-02-04T07:58:48;94731.78;;;3.85;100.00
40245;BME280;25963;42.694;23.600;2023-02-04T08:01:13;94722.47;;;3.97;100.00
40245;BME280;25963;42.694;23.600;2023-02-04T08:03:39;94719.31;;;4.02;100.00
40245;BME280;25963;42.694;23.600;2023-02-04T08:06:04;94728.88;;;4.16;100.00
40245;BME280;25963;42.694;23.600;2023-02-04T08:08:30;94729.16;;;4.28;100.00
40245;BME280;25963;42.694;23.600;2023-02-04T08:10:55;94703.47;;;4.31;100.00
40245;BME280;25963;42.694;23.600;2023-02-04T08:13:20;94719.75;;;4.33;100.00
40245;BME280;25963;42.694;23.600;2023-02-04T08:15:46;94722.59;;;4.10;100.00
40245;BME280;25963;42.694;23.600;2023-02-04T08:18:11;94716.94;;;4.07;100.00
40245;BME280;25963;42.694;23.600;2023-02-04T08:20:36;94717.78;;;4.14;100.00
40245;BME280;25963;42.694;23.600;2023-02-04T08:23:02;94719.19;;;4.10;100.00
40245;BME280;25963;42.694;23.600;2023-02-04T08:25:27;94703.75;;;4.15;100.00
40245;BME280;25963;42.694;23.600;2023-02-04T08:27:53;94719.03;;;4.18;100.00
40245;BME280;25963;42.694;23.600;2023-02-04T08:30:19;94723.56;;;4.09;100.00
40245;BME280;25963;42.694;23.600;2023-02-04T08:32:44;94718.22;;;4.18;100.00
40245;BME280;25963;42.694;23.600;2023-02-04T08:35:10;94719.16;;;4.31;100.00
40245;BME280;25963;42.694;23.600;2023-02-04T08:37:35;94717.13;;;4.33;100.00
40245;BME280;25963;42.694;23.600;2023-02-04T08:40:01;94720.47;;;4.21;100.00
40245;BME280;25963;42.694;23.600;2023-02-04T08:42:27;94708.53;;;4.11;100.00
40245;BME280;25963;42.694;23.600;2023-02-04T08:44:53;94718.47;;;4.23;100.00
40245;BME280;25963;42.694;23.600;2023-02-04T08:47:18;94714.47;;;4.27;100.00
40245;BME280;25963;42.694;23.600;2023-02-04T08:49:44;94718.09;;;4.26;100.00
40245;BME280;25963;42.694;23.600;2023-02-04T08:52:09;94717.47;;;4.24;100.00
40245;BME280;25963;42.694;23.600;2023-02-04T08:54:35;94712.00;;;4.40;100.00
40245;BME280;25963;42.694;23.600;2023-02-04T08:57:01;94712.38;;;4.37;100.00
40245;BME280;25963;42.694;23.600;2023-02-04T08:59:27;94695.94;;;4.43;100.00
40245;BME280;25963;42.694;23.600;2023-02-04T09:01:52;94690.47;;;4.38;100.00
40245;BME280;25963;42.694;23.600;2023-02-04T09:04:19;94714.59;;;4.40;100.00
40245;BME280;25963;42.694;23.600;2023-02-04T09:06:45;94705.13;;;4.39;100.00
40245;BME280;25963;42.694;23.600;2023-02-04T09:09:11;94691.50;;;4.44;100.00
40245;BME280;25963;42.694;23.600;2023-02-04T09:11:37;94703.94;;;4.42;100.00
40245;BME280;25963;42.694;23.600;2023-02-04T09:14:03;94717.13;;;4.33;100.00
40245;BME280;25963;42.694;23.600;2023-02-04T09:16:28;94709.78;;;4.44;100.00
40245;BME280;25963;42.694;23.600;2023-02-04T09:18:54;94702.69;;;4.31;100.00
40245;BME280;25963;42.694;23.600;2023-02-04T09:21:19;94710.34;;;4.39;100.00
40245;BME280;25963;42.694;23.600;2023-02-04T09:23:44;94708.63;;;4.46;100.00
40245;BME280;25963;42.694;23.600;2023-02-04T09:26:11;94705.63;;;4.49;100.00
40245;BME280;25963;42.694;23.600;2023-02-04T09:28:37;94709.66;;;4.52;100.00
40245;BME280;25963;42.694;23.600;2023-02-04T09:31:03;94714.81;;;4.45;100.00
40245;BME280;25963;42.694;23.600;2023-02-04T09:33:31;94701.91;;;4.37;100.00
40245;BME280;25963;42.694;23.600;2023-02-04T09:35:58;94712.00;;;4.40;100.00
40245;BME280;25963;42.694;23.600;2023-02-04T09:38:24;94708.16;;;4.43;100.00
40245;BME280;25963;42.694;23.600;2023-02-04T09:40:53;94706.75;;;4.40;100.00
40245;BME280;25963;42.694;23.600;2023-02-04T09:43:23;94703.78;;;4.22;100.00
40245;BME280;25963;42.694;23.600;2023-02-04T09:45:53;94702.22;;;3.99;100.00
40245;BME280;25963;42.694;23.600;2023-02-04T09:48:18;94703.56;;;4.17;100.00
40245;BME280;25963;42.694;23.600;2023-02-04T09:50:46;94701.97;;;3.94;100.00
40245;BME280;25963;42.694;23.600;2023-02-04T09:53:20;94696.75;;;3.73;100.00
40245;BME280;25963;42.694;23.600;2023-02-04T09:55:48;94695.75;;;3.74;100.00
40245;BME280;25963;42.694;23.600;2023-02-04T09:58:20;94688.66;;;3.46;100.00
40245;BME280;25963;42.694;23.600;2023-02-04T10:00:57;94680.66;;;3.48;100.00
40245;BME280;25963;42.694;23.600;2023-02-04T10:03:24;94677.78;;;3.42;100.00
40245;BME280;25963;42.694;23.600;2023-02-04T10:05:50;94675.00;;;3.44;100.00
40245;BME280;25963;42.694;23.600;2023-02-04T10:08:18;94657.63;;;3.51;100.00
40245;BME280;25963;42.694;23.600;2023-02-04T10:10:44;94672.22;;;3.67;100.00
40245;BME280;25963;42.694;23.600;2023-02-04T10:13:19;94667.69;;;3.76;100.00
40245;BME280;25963;42.694;23.600;2023-02-04T10:15:46;94673.84;;;3.89;100.00
40245;BME280;25963;42.694;23.600;2023-02-04T10:18:21;94663.22;;;3.70;100.00
40245;BME280;25963;42.694;23.600;2023-02-04T10:20:50;94663.22;;;3.70;100.00
40245;BME280;25963;42.694;23.600;2023-02-04T10:23:16;94664.75;;;3.64;100.00
40245;BME280;25963;42.694;23.600;2023-02-04T10:25:42;94654.91;;;3.59;100.00
40245;BME280;25963;42.694;23.600;2023-02-04T10:28:08;94653.25;;;3.80;100.00
40245;BME280;25963;42.694;23.600;2023-02-04T10:30:41;94656.22;;;3.77;100.00
40245;BME280;25963;42.694;23.600;2023-02-04T10:33:13;94656.59;;;3.74;100.00
40245;BME280;25963;42.694;23.600;2023-02-04T10:35:47;94651.53;;;3.87;100.00
40245;BME280;25963;42.694;23.600;2023-02-04T10:38:13;94649.78;;;3.73;100.00
40245;BME280;25963;42.694;23.600;2023-02-04T10:40:38;94651.78;;;3.71;100.00
40245;BME280;25963;42.694;23.600;2023-02-04T10:43:21;94647.66;;;3.61;100.00
40245;BME280;25963;42.694;23.600;2023-02-04T10:45:47;94645.94;;;3.69;100.00
40245;BME280;25963;42.694;23.600;2023-02-04T10:48:19;94644.69;;;3.64;100.00
40245;BME280;25963;42.694;23.600;2023-02-04T10:50:46;94638.19;;;3.54;100.00
40245;BME280;25963;42.694;23.600;2023-02-04T10:53:17;94636.00;;;3.57;100.00
40245;BME280;25963;42.694;23.600;2023-02-04T10:56:02;94631.56;;;3.79;100.00
40245;BME280;25963;42.694;23.600;2023-02-04T10:58:29;94629.22;;;3.84;100.00
40245;BME280;25963;42.694;23.600;2023-02-04T11:00:55;94624.69;;;3.93;100.00
40245;BME280;25963;42.694;23.600;2023-02-04T11:03:23;94622.09;;;4.00;100.00
40245;BME280;25963;42.694;23.600;2023-02-04T11:05:50;94617.97;;;3.84;100.00
40245;BME280;25963;42.694;23.600;2023-02-04T11:08:25;94611.25;;;3.96;100.00
40245;BME280;25963;42.694;23.600;2023-02-04T11:11:24;94612.75;;;3.84;100.00
40245;BME280;25963;42.694;23.600;2023-02-04T11:16:46;94607.63;;;3.97;100.00
40245;BME280;25963;42.694;23.600;2023-02-04T11:19:12;94602.56;;;3.89;100.00
40245;BME280;25963;42.694;23.600;2023-02-04T11:39:41;94595.00;;;3.73;100.00
40245;BME280;25963;42.694;23.600;2023-02-04T11:45:02;94586.91;;;3.89;100.00
40245;BME280;25963;42.694;23.600;2023-02-04T11:47:34;94588.69;;;3.88;100.00
40245;BME280;25963;42.694;23.600;2023-02-04T11:50:04;94593.22;;;4.01;100.00
40245;BME280;25963;42.694;23.600;2023-02-04T11:52:35;94589.28;;;3.84;100.00
40245;BME280;25963;42.694;23.600;2023-02-04T11:55:00;94587.91;;;3.88;100.00
40245;BME280;25963;42.694;23.600;2023-02-04T11:57:27;94583.53;;;3.95;100.00
40245;BME280;25963;42.694;23.600;2023-02-04T11:59:54;94582.91;;;3.93;100.00
40245;BME280;25963;42.694;23.600;2023-02-04T12:02:22;94583.31;;;3.90;100.00
40245;BME280;25963;42.694;23.600;2023-02-04T12:07:23;94581.34;;;3.99;100.00
40245;BME280;25963;42.694;23.600;2023-02-04T12:09:50;94580.28;;;3.86;100.00
40245;BME280;25963;42.694;23.600;2023-02-04T12:12:24;94569.09;;;3.99;100.00
40245;BME280;25963;42.694;23.600;2023-02-04T12:15:12;94565.97;;;4.10;100.00
40245;BME280;25963;42.694;23.600;2023-02-04T12:17:38;94561.66;;;3.96;100.00
40245;BME280;25963;42.694;23.600;2023-02-04T12:20:04;94562.28;;;3.98;100.00
40245;BME280;25963;42.694;23.600;2023-02-04T12:22:30;94559.72;;;3.77;100.00
40245;BME280;25963;42.694;23.600;2023-02-04T12:24:57;94568.97;;;3.79;100.00
40245;BME280;25963;42.694;23.600;2023-02-04T12:27:22;94564.28;;;3.96;100.00
40245;BME280;25963;42.694;23.600;2023-02-04T12:29:49;94567.50;;;3.98;100.00
40245;BME280;25963;42.694;23.600;2023-02-04T12:32:14;94566.00;;;4.17;100.00
40245;BME280;25963;42.694;23.600;2023-02-04T12:34:40;94566.81;;;4.18;100.00
40245;BME280;25963;42.694;23.600;2023-02-04T12:37:05;94555.97;;;4.21;100.00
40245;BME280;25963;42.694;23.600;2023-02-04T12:39:31;94565.41;;;4.22;100.00
40245;BME280;25963;42.694;23.600;2023-02-04T12:41:56;94563.44;;;4.24;100.00
40245;BME280;25963;42.694;23.600;2023-02-04T12:44:22;94557.56;;;4.15;100.00
40245;BME280;25963;42.694;23.600;2023-02-04T12:46:47;94570.50;;;4.30;100.00
40245;BME280;25963;42.694;23.600;2023-02-04T12:49:14;94567.19;;;4.15;100.00
40245;BME280;25963;42.694;23.600;2023-02-04T12:51:39;94561.97;;;4.15;100.00
40245;BME280;25963;42.694;23.600;2023-02-04T12:54:05;94563.13;;;4.40;100.00
40245;BME280;25963;42.694;23.600;2023-02-04T12:56:32;94570.28;;;4.25;100.00
40245;BME280;25963;42.694;23.600;2023-02-04T12:58:57;94569.28;;;4.26;100.00
40245;BME280;25963;42.694;23.600;2023-02-04T13:01:23;94567.50;;;4.33;100.00
40245;BME280;25963;42.694;23.600;2023-02-04T13:03:49;94575.34;;;4.40;100.00
40245;BME280;25963;42.694;23.600;2023-02-04T13:06:15;94572.81;;;4.46;100.00
40245;BME280;25963;42.694;23.600;2023-02-04T13:08:41;94572.03;;;4.18;100.00
40245;BME280;25963;42.694;23.600;2023-02-04T13:11:08;94579.81;;;4.11;100.00
40245;BME280;25963;42.694;23.600;2023-02-04T13:13:34;94573.97;;;4.09;100.00